This is the latest recevied weather packets stored in our database for station/object IK8SUT-10. If no packets are shown the sender has not sent any weather packets the latest 10 day(s).
| Time | Temp. | Humidity | Pressure | Rain* | Wind** | Luminosity | Snow |
|---|---|---|---|---|---|---|---|
| 1777746660 | 22.78° C | 54% | 1023 hPa | - | - | - | - |
| 1777745760 | 23.33° C | 54% | 1022.9 hPa | - | - | - | - |
| 1777744859 | 22.78° C | 54% | 1022.7 hPa | - | - | - | - |
| 1777743958 | 22.78° C | 53% | 1022.5 hPa | - | - | - | - |
| 1777743057 | 22.78° C | 54% | 1022.5 hPa | - | - | - | - |
| 1777742156 | 22.78° C | 54% | 1022.5 hPa | - | - | - | - |
| 1777741256 | 23.33° C | 53% | 1022.4 hPa | - | - | - | - |
| 1777740376 | 22.78° C | 53% | 1022.4 hPa | - | - | - | - |
| 1777739475 | 22.78° C | 53% | 1022.2 hPa | - | - | - | - |
| 1777738574 | 22.78° C | 53% | 1022.1 hPa | - | - | - | - |
| 1777737673 | 22.78° C | 54% | 1022.3 hPa | - | - | - | - |
| 1777736772 | 22.78° C | 53% | 1022.1 hPa | - | - | - | - |
| 1777735871 | 23.33° C | 53% | 1022.2 hPa | - | - | - | - |
| 1777734971 | 23.33° C | 52% | 1022.4 hPa | - | - | - | - |
| 1777734070 | 23.33° C | 53% | 1022.4 hPa | - | - | - | - |
| 1777733169 | 23.89° C | 51% | 1022.5 hPa | - | - | - | - |
| 1777732268 | 26.11° C | 46% | 1022.5 hPa | - | - | - | - |
| 1777731367 | 25.56° C | 47% | 1022.7 hPa | - | - | - | - |
| 1777730467 | 23.33° C | 51% | 1022.7 hPa | - | - | - | - |
| 1777729566 | 22.78° C | 52% | 1022.7 hPa | - | - | - | - |
| 1777728665 | 22.78° C | 52% | 1023 hPa | - | - | - | - |
| 1777727764 | 22.78° C | 52% | 1023 hPa | - | - | - | - |
| 1777726863 | 22.78° C | 53% | 1023.1 hPa | - | - | - | - |
| 1777725961 | 22.78° C | 53% | 1023.3 hPa | - | - | - | - |
| 1777725061 | 22.78° C | 53% | 1023.5 hPa | - | - | - | - |
* Rain since midnight (hover to see other rain measurements)
** Current wind speed in m/s (hover to see current wind gust speed)